Decoded Metar for KWAL (WALLOPS ISLAND in VA, USA) (IATA:WAL) | Meteo·Mobile Aviation Weather
aviador You're here:

KWAL Decoded Metar

WALLOPS ISLAND in VA, USA
Report Time2018-09-21 16:54:00
UTC Time2018-09-21 17:18:01
Flight Rules vfr VFR
Wind170° at 08 kt
W.Decomp.*RWY 17: 7.9 kt HW 1.5 kt RCW
RWY 22: 6.2 kt HW 5 kt LCW
RWY 10: 1.3 kt HW 7.9 kt RCW
W.Rank170° ranks 25
Current wind is above 170° avg. (7.5)
Visibility9999 m
Phenomena:N/A
Clouds:Few 025 Hf
Broken 110 Hf
Expected CloudBase > 3,200 ft AGL from Temp-Dew spread
Ceiling11,000 ft
Temp26°C (ISA +11)
Dew Point18°C (61% RH)
AAT25.9°C
QNH1023 hPa
Density Alt1,266 ft
Elevation46 ft
Report Wrong Elevation
Raw Report
METAR KWAL 211654Z 17008KT 10SM FEW025 BKN110 26/18 A3021 RMK AO2 SLP228
T02610183=

Extra information for KWAL:More info

Metar Taf Metar & Taf Last 4 Metars F.Rules Stats Wind Profile Meteogram Temp Stats Airport Information Weather charts Add Link Nearby VenuesMetar ALERT Operation Metar Decoded Social comments

AIRNAV info for KWAL